Time;durP1;ratioP1;P1;durP2;ratioP2;P2;SDS_P1;SDS_P2;PMS_P1;PMS_P2;Temp;Humidity;BMP_temperature;BMP_pressure;BME280_temperature;BME280_humidity;BME280_pressure;Samples;Min_cycle;Max_cycle;Signal;HPM_P1;HPM_P2
2022/09/04 00:02:27;;;;;;;1.9;1.5;;;;;;;15.13;96.10547;939.028;;;;
2022/09/04 00:04:52;;;;;;;1.7;1.5;;;;;;;15.33;94.45605;939.051;;;;
2022/09/04 00:07:17;;;;;;;1.8;1.4;;;;;;;15.45;93.44238;939.0639;;;;
2022/09/04 00:09:42;;;;;;;1.7;1.3;;;;;;;15.35;93.84668;939.0773;;;;
2022/09/04 00:12:09;;;;;;;1.7;1.2;;;;;;;15.35;94.06543;939.135;;;;
2022/09/04 00:14:34;;;;;;;2.5;1.5;;;;;;;15.22;94.36133;939.1119;;;;
2022/09/04 00:17:00;;;;;;;1.6;1.4;;;;;;;15.01;95.36621;939.0397;;;;
2022/09/04 00:19:24;;;;;;;2.7;1.9;;;;;;;14.98;95.84277;939.0912;;;;
2022/09/04 00:21:50;;;;;;;1.7;1.6;;;;;;;15.04;95.31445;939.0944;;;;
2022/09/04 00:24:16;;;;;;;2.3;1.6;;;;;;;14.75;97.00391;939.1756;;;;
2022/09/04 00:26:40;;;;;;;2.1;1.4;;;;;;;14.97;96.04883;939.1218;;;;
2022/09/04 00:29:05;;;;;;;1.6;1.5;;;;;;;14.94;96.06641;939.2037;;;;
2022/09/04 00:31:37;;;;;;;2.1;1.5;;;;;;;15.23;94.75586;939.1905;;;;
2022/09/04 00:33:58;;;;;;;1.9;1.3;;;;;;;15.33;93.63477;939.1825;;;;
2022/09/04 00:36:23;;;;;;;1.4;1.3;;;;;;;15.44;93.26758;939.2156;;;;
2022/09/04 00:38:49;;;;;;;1.9;1.5;;;;;;;15.47;93.19238;939.1986;;;;
2022/09/04 00:41:14;;;;;;;1.5;1.4;;;;;;;15.44;92.74609;939.2084;;;;
2022/09/04 00:43:39;;;;;;;2;1.8;;;;;;;15.46;92.20703;939.1866;;;;
2022/09/04 00:46:07;;;;;;;2.3;1.9;;;;;;;15.51;91.41016;939.2031;;;;
2022/09/04 00:48:35;;;;;;;3.6;2.1;;;;;;;15.57;90.66113;939.1906;;;;
2022/09/04 00:50:58;;;;;;;2.7;1.7;;;;;;;15.51;90.75195;939.2472;;;;
2022/09/04 00:53:22;;;;;;;1.7;1.5;;;;;;;15.32;91.70508;939.1794;;;;
2022/09/04 00:55:49;;;;;;;2;1.8;;;;;;;14.98;93.52441;939.2349;;;;
2022/09/04 00:58:13;;;;;;;2.4;1.6;;;;;;;14.95;93.98047;939.2325;;;;
2022/09/04 01:00:42;;;;;;;1.9;1.4;;;;;;;14.8;94.52344;939.2363;;;;
2022/09/04 01:03:06;;;;;;;2;1.4;;;;;;;14.85;94.69922;939.2563;;;;
2022/09/04 01:05:32;;;;;;;1.4;1.3;;;;;;;15.06;93.58984;939.2947;;;;
2022/09/04 01:07:57;;;;;;;1.5;1.2;;;;;;;15.18;92.4502;939.3886;;;;
2022/09/04 01:10:22;;;;;;;1.3;1.2;;;;;;;15.23;91.93945;939.3853;;;;
2022/09/04 01:12:47;;;;;;;2.1;1.2;;;;;;;15.29;91.81445;939.4235;;;;
2022/09/04 01:15:14;;;;;;;2.1;1.3;;;;;;;15.37;91.7627;939.3917;;;;
2022/09/04 01:17:43;;;;;;;1.4;1.3;;;;;;;15.33;91.93555;939.4417;;;;
2022/09/04 01:20:12;;;;;;;3.9;1.6;;;;;;;15.3;92.19727;939.4041;;;;
2022/09/04 01:22:40;;;;;;;1.7;1.5;;;;;;;15.46;91.85059;939.4386;;;;
2022/09/04 01:25:04;;;;;;;2;1.4;;;;;;;15.38;92.17969;939.4525;;;;
2022/09/04 01:28:17;;;;;;;3;1.4;;;;;;;15.47;91.61035;939.5003;;;;
2022/09/04 01:30:42;;;;;;;2.3;1.5;;;;;;;15.51;91.08691;939.5041;;;;
2022/09/04 01:33:07;;;;;;;1.4;1.2;;;;;;;15.52;90.58203;939.4855;;;;
2022/09/04 01:38:49;;;;;;;2.6;1.3;;;;;;;15.15;92.68457;939.546;;;;
2022/09/04 01:41:16;;;;;;;1.6;1.5;;;;;;;15.26;92.51074;939.5287;;;;
2022/09/04 01:43:46;;;;;;;2.9;1.3;;;;;;;15.24;92.25586;939.5602;;;;
2022/09/04 01:46:16;;;;;;;1.2;1.1;;;;;;;15.1;92.64063;939.4517;;;;
2022/09/04 01:48:41;;;;;;;2.4;1.4;;;;;;;14.84;94.38379;939.4737;;;;
2022/09/04 01:51:06;;;;;;;2.2;1.3;;;;;;;15.04;93.3418;939.5193;;;;
2022/09/04 01:53:31;;;;;;;2.2;1.5;;;;;;;14.95;93.42676;939.5132;;;;
2022/09/04 01:55:59;;;;;;;1.7;1.3;;;;;;;15.07;92.90918;939.4928;;;;
2022/09/04 01:58:24;;;;;;;2.8;1.3;;;;;;;14.66;94.93262;939.5817;;;;
2022/09/04 02:00:49;;;;;;;1.7;1.4;;;;;;;14.5;96.46387;939.6277;;;;
2022/09/04 02:03:15;;;;;;;2.2;1.6;;;;;;;14.78;94.74121;939.5843;;;;
2022/09/04 02:05:40;;;;;;;1.8;1.3;;;;;;;14.86;94.19141;939.6115;;;;
2022/09/04 02:08:10;;;;;;;1.4;1.2;;;;;;;14.98;93.04004;939.5892;;;;
2022/09/04 02:10:36;;;;;;;2.8;1.4;;;;;;;15.09;92.07324;939.5633;;;;
2022/09/04 02:13:01;;;;;;;2;1.4;;;;;;;14.57;94.87598;939.5528;;;;
2022/09/04 02:15:30;;;;;;;1.8;1.4;;;;;;;14.77;94.33301;939.4786;;;;
2022/09/04 02:18:01;;;;;;;1.6;1.3;;;;;;;14.72;94.32129;939.3978;;;;
2022/09/04 02:20:24;;;;;;;1.7;1.2;;;;;;;14.89;93.4248;939.5769;;;;
2022/09/04 02:22:49;;;;;;;1.3;1.2;;;;;;;14.64;94.38477;939.5753;;;;
2022/09/04 02:25:19;;;;;;;1.6;1.5;;;;;;;14.61;94.33301;939.5767;;;;
2022/09/04 02:27:44;;;;;;;1.8;1.3;;;;;;;14.75;93.82227;939.6061;;;;
2022/09/04 02:30:13;;;;;;;2.7;1.6;;;;;;;14.84;92.87305;939.5995;;;;
2022/09/04 02:32:39;;;;;;;1.8;1.3;;;;;;;14.79;93;939.5522;;;;
2022/09/04 02:35:04;;;;;;;1.6;1.4;;;;;;;14.7;93.32813;939.5847;;;;
2022/09/04 02:37:31;;;;;;;3;1.5;;;;;;;14.69;94.0625;939.6055;;;;
2022/09/04 02:39:59;;;;;;;2.2;1.4;;;;;;;14.73;93.61133;939.5966;;;;
2022/09/04 02:42:32;;;;;;;1.8;1.2;;;;;;;14.78;93.14746;939.5835;;;;
2022/09/04 02:44:59;;;;;;;2;1.5;;;;;;;14.86;92.55371;939.585;;;;
2022/09/04 02:47:27;;;;;;;1.9;1.2;;;;;;;14.87;92.11719;939.5481;;;;
2022/09/04 02:53:28;;;;;;;1.5;1.3;;;;;;;14.88;91.83105;939.6298;;;;
2022/09/04 02:55:54;;;;;;;1.5;1.3;;;;;;;14.86;91.5166;939.6523;;;;
2022/09/04 02:58:19;;;;;;;1.7;1.4;;;;;;;14.84;91.77734;939.7383;;;;
2022/09/04 03:00:44;;;;;;;1.9;1.7;;;;;;;14.77;91.94727;939.7166;;;;
2022/09/04 03:03:09;;;;;;;1.2;1.1;;;;;;;14.73;92.07715;939.6454;;;;
2022/09/04 03:05:35;;;;;;;1.4;1.3;;;;;;;14.66;92.16602;939.7123;;;;
2022/09/04 03:08:33;;;;;;;1.8;1.3;;;;;;;14.78;91.44141;939.6749;;;;
2022/09/04 03:10:58;;;;;;;1.5;1.4;;;;;;;14.73;91.8125;939.7264;;;;
2022/09/04 03:13:24;;;;;;;1.9;1.4;;;;;;;14.81;91.57617;939.7148;;;;
2022/09/04 03:15:52;;;;;;;3.9;1.9;;;;;;;14.51;92.14551;939.715;;;;
2022/09/04 03:18:16;;;;;;;1.9;1.8;;;;;;;14.43;93.18945;939.7657;;;;
2022/09/04 03:20:42;;;;;;;2.3;1.7;;;;;;;14.61;92.00488;939.7803;;;;
2022/09/04 03:23:07;;;;;;;2.1;1.5;;;;;;;14.66;91.65918;939.7531;;;;
2022/09/04 03:25:35;;;;;;;2;1.5;;;;;;;14.66;91.72852;939.77;;;;
2022/09/04 03:28:00;;;;;;;2.5;1.5;;;;;;;14.63;91.9873;939.7092;;;;
2022/09/04 03:30:25;;;;;;;1.6;1.5;;;;;;;14.74;91.39941;939.7865;;;;
2022/09/04 03:32:50;;;;;;;1.3;1.2;;;;;;;14.74;91.08789;939.8353;;;;
2022/09/04 03:35:16;;;;;;;1.5;1.4;;;;;;;14.69;91.61816;939.8837;;;;
2022/09/04 03:37:42;;;;;;;1.5;1.4;;;;;;;14.75;91.72363;939.9139;;;;
2022/09/04 03:40:10;;;;;;;2.7;1.6;;;;;;;14.87;90.78223;939.8928;;;;
2022/09/04 03:42:35;;;;;;;1.8;1.4;;;;;;;14.73;90.98242;939.8915;;;;
2022/09/04 03:45:01;;;;;;;2.6;1.8;;;;;;;14.59;91.80469;939.8894;;;;
2022/09/04 03:47:36;;;;;;;1.9;1.3;;;;;;;14.75;90.69824;939.9052;;;;
2022/09/04 03:50:02;;;;;;;1.6;1.5;;;;;;;14.62;91.23633;939.8887;;;;
2022/09/04 03:52:31;;;;;;;2.3;1.5;;;;;;;14.63;91.20215;939.9016;;;;
2022/09/04 03:54:59;;;;;;;4;2;;;;;;;14.54;91.40332;939.9713;;;;
2022/09/04 03:57:24;;;;;;;1.6;1.4;;;;;;;14.42;92.07031;939.9705;;;;
2022/09/04 03:59:49;;;;;;;2;1.4;;;;;;;14.33;92.16504;940.0209;;;;
2022/09/04 04:02:42;;;;;;;1.9;1.3;;;;;;;14.13;92.64063;939.9994;;;;
2022/09/04 04:05:14;;;;;;;1.5;1.4;;;;;;;13.52;96.88086;939.9506;;;;
2022/09/04 04:07:46;;;;;;;1.7;1.6;;;;;;;13.28;99.35449;939.9892;;;;
2022/09/04 04:10:12;;;;;;;1.6;1.4;;;;;;;13.43;98.82617;939.9994;;;;
2022/09/04 04:12:41;;;;;;;2.2;1.5;;;;;;;13.46;98.12012;940.0578;;;;
2022/09/04 04:15:05;;;;;;;1.6;1.5;;;;;;;13.52;97.84668;940.0875;;;;
2022/09/04 04:17:31;;;;;;;2.2;1.7;;;;;;;13.52;98.05371;940.0683;;;;
2022/09/04 04:20:04;;;;;;;2.9;1.6;;;;;;;13.55;97.83008;940.0627;;;;
2022/09/04 04:22:22;;;;;;;1.6;1.5;;;;;;;13.52;97.88086;940.1442;;;;
2022/09/04 04:24:47;;;;;;;2;1.6;;;;;;;13.51;97.68164;940.1483;;;;
2022/09/04 04:27:15;;;;;;;2.1;1.6;;;;;;;13.51;98.13184;940.1747;;;;
2022/09/04 04:29:39;;;;;;;2.2;1.8;;;;;;;13.35;98.71387;940.231;;;;
2022/09/04 04:32:12;;;;;;;2.3;1.8;;;;;;;13.34;99.13867;940.2573;;;;
2022/09/04 04:34:31;;;;;;;1.6;1.5;;;;;;;13.35;98.92285;940.2389;;;;
2022/09/04 04:37:01;;;;;;;1.7;1.6;;;;;;;13.39;98.54004;940.2086;;;;
2022/09/04 04:39:26;;;;;;;3.5;1.8;;;;;;;13.5;97.7832;940.233;;;;
2022/09/04 04:47:41;;;;;;;1.7;1.6;;;;;;;13.57;97.06348;940.3475;;;;
2022/09/04 04:50:07;;;;;;;1.5;1.4;;;;;;;13.55;96.67969;940.3972;;;;
2022/09/04 04:52:33;;;;;;;2.1;1.7;;;;;;;13.5;97.10449;940.4514;;;;
2022/09/04 04:54:58;;;;;;;1.9;1.7;;;;;;;13.49;97.46094;940.5242;;;;
2022/09/04 04:57:24;;;;;;;2.1;1.7;;;;;;;13.57;97.20117;940.5468;;;;
2022/09/04 04:59:54;;;;;;;1.8;1.6;;;;;;;13.46;97.88965;940.5418;;;;
2022/09/04 05:02:19;;;;;;;3.4;1.9;;;;;;;13.54;97.67773;940.5803;;;;
2022/09/04 05:04:44;;;;;;;2.1;1.7;;;;;;;13.64;97.17188;940.5344;;;;
2022/09/04 05:07:08;;;;;;;1.8;1.7;;;;;;;13.44;97.80566;940.6289;;;;
2022/09/04 05:09:33;;;;;;;1.9;1.6;;;;;;;13.4;98.56738;940.6494;;;;
2022/09/04 05:11:58;;;;;;;3.1;1.8;;;;;;;13.43;98.30859;940.6945;;;;
2022/09/04 05:14:23;;;;;;;2.1;1.9;;;;;;;13.3;99.50977;940.7611;;;;
2022/09/04 05:16:49;;;;;;;2;1.8;;;;;;;13.33;99.25195;940.7852;;;;
2022/09/04 05:19:17;;;;;;;2.8;1.5;;;;;;;13.4;99.68262;940.7558;;;;
2022/09/04 05:21:43;;;;;;;1.7;1.6;;;;;;;13.52;99.35059;940.8251;;;;
2022/09/04 05:24:08;;;;;;;3.2;1.9;;;;;;;13.67;99.31641;940.7969;;;;
2022/09/04 05:26:35;;;;;;;3.5;2;;;;;;;13.87;98.4873;940.8254;;;;
2022/09/04 05:29:00;;;;;;;2.6;1.7;;;;;;;14.07;97.49805;940.8571;;;;
2022/09/04 05:31:28;;;;;;;1.6;1.5;;;;;;;13.98;97.11035;940.9295;;;;
2022/09/04 05:33:53;;;;;;;1.6;1.5;;;;;;;14.13;96.93457;940.8898;;;;
2022/09/04 05:36:18;;;;;;;3.5;1.4;;;;;;;14.1;96.56055;940.8939;;;;
2022/09/04 05:38:48;;;;;;;1.6;1.5;;;;;;;14.22;97.53027;940.9094;;;;
2022/09/04 05:41:14;;;;;;;3.3;1.8;;;;;;;14.57;97.36719;940.932;;;;
2022/09/04 05:43:43;;;;;;;3;1.7;;;;;;;15.05;93.55176;940.9028;;;;
2022/09/04 05:46:09;;;;;;;3.1;1.5;;;;;;;15.57;92.18555;940.9981;;;;
2022/09/04 05:48:35;;;;;;;1.4;1.3;;;;;;;17.09;84.95996;941.0159;;;;
2022/09/04 05:51:00;;;;;;;2.4;1.1;;;;;;;18.57;76.9541;941.007;;;;
2022/09/04 05:53:27;;;;;;;1;1;;;;;;;19.4;72.08887;941.0198;;;;
2022/09/04 05:55:54;;;;;;;1.2;1.1;;;;;;;19.93;70.2627;941.0582;;;;
2022/09/04 05:58:21;;;;;;;1.7;1;;;;;;;20.57;66.71973;941.0298;;;;
2022/09/04 06:00:51;;;;;;;2.4;1.3;;;;;;;20.8;67.4668;941.0536;;;;
2022/09/04 06:03:17;;;;;;;1.1;1;;;;;;;21.37;64.34766;941.0775;;;;
2022/09/04 06:05:44;;;;;;;1.4;1;;;;;;;21.86;62.56738;941.0644;;;;
2022/09/04 06:08:10;;;;;;;2.2;1.3;;;;;;;22.69;59.69043;941.0968;;;;
2022/09/04 06:10:37;;;;;;;1.1;1;;;;;;;22.75;58.87695;941.0966;;;;
2022/09/04 06:13:06;;;;;;;2;1;;;;;;;23.19;57.36035;941.0711;;;;
2022/09/04 06:15:35;;;;;;;2.2;1.3;;;;;;;22.61;59.0918;941.1057;;;;
2022/09/04 06:18:06;;;;;;;0.9;0.9;;;;;;;22.64;60.91504;941.1344;;;;
2022/09/04 06:20:31;;;;;;;1.3;1.2;;;;;;;23.17;60.16602;941.0563;;;;
2022/09/04 06:23:00;;;;;;;1;1;;;;;;;23.68;57.29395;941.106;;;;
2022/09/04 06:25:27;;;;;;;1.4;1.1;;;;;;;23.99;55.76758;941.1442;;;;
2022/09/04 06:27:52;;;;;;;3.3;0.8;;;;;;;22.68;58.47949;941.1395;;;;
2022/09/04 06:30:25;;;;;;;1.2;1.1;;;;;;;21.71;59.86328;941.1934;;;;
2022/09/04 06:32:55;;;;;;;0.8;0.8;;;;;;;21.18;63.2666;941.1964;;;;
2022/09/04 06:35:21;;;;;;;1;1;;;;;;;21.86;60.44629;941.2299;;;;
2022/09/04 06:37:50;;;;;;;1.3;1;;;;;;;21.75;63.18359;941.2369;;;;
2022/09/04 06:40:21;;;;;;;1;1;;;;;;;22.13;61.56055;941.2403;;;;
2022/09/04 06:42:46;;;;;;;1.1;0.9;;;;;;;21.66;61.28516;941.2856;;;;
2022/09/04 06:45:14;;;;;;;2.2;1.2;;;;;;;20.73;66.12305;941.3078;;;;
2022/09/04 06:47:40;;;;;;;1.2;0.9;;;;;;;20.79;66.21582;941.3395;;;;
2022/09/04 06:50:04;;;;;;;1;0.9;;;;;;;21.34;64.72852;941.3109;;;;
2022/09/04 06:52:36;;;;;;;1.1;1;;;;;;;20.9;62.32617;941.3387;;;;
2022/09/04 06:55:11;;;;;;;1;1;;;;;;;20.35;65.51758;941.2942;;;;
2022/09/04 06:57:37;;;;;;;0.9;0.9;;;;;;;20.87;65.31543;941.2835;;;;
2022/09/04 07:00:02;;;;;;;1.2;1;;;;;;;21.22;64.42969;941.2141;;;;
2022/09/04 07:02:27;;;;;;;1.4;0.9;;;;;;;20.89;64.48926;941.2863;;;;
2022/09/04 07:04:52;;;;;;;1.2;1.1;;;;;;;21.22;63.36621;941.2506;;;;
2022/09/04 07:07:17;;;;;;;1.4;1;;;;;;;21.23;64.22168;941.197;;;;
2022/09/04 07:09:45;;;;;;;1.2;1.1;;;;;;;21.41;67.00879;941.301;;;;
2022/09/04 07:12:10;;;;;;;1.2;1.1;;;;;;;22.31;62.66504;941.317;;;;
2022/09/04 07:14:37;;;;;;;1.2;1.1;;;;;;;22.98;60.07031;941.3192;;;;
2022/09/04 07:17:04;;;;;;;2.3;0.9;;;;;;;24.01;58.06543;941.3666;;;;
2022/09/04 07:19:33;;;;;;;0.9;0.9;;;;;;;24.58;52.82422;941.3576;;;;
2022/09/04 07:21:59;;;;;;;0.9;0.9;;;;;;;24.23;54.03223;941.3528;;;;
2022/09/04 07:24:22;;;;;;;1.2;0.9;;;;;;;23.57;55.42188;941.3787;;;;
2022/09/04 07:26:48;;;;;;;1.1;1.1;;;;;;;23.88;53.57617;941.3762;;;;
2022/09/04 07:29:14;;;;;;;2;1.1;;;;;;;24.87;52.16211;941.4133;;;;
2022/09/04 07:31:38;;;;;;;0.7;0.7;;;;;;;25.25;49.16113;941.4334;;;;
2022/09/04 07:34:03;;;;;;;0.8;0.8;;;;;;;26.25;49.09277;941.3958;;;;
2022/09/04 07:36:33;;;;;;;0.8;0.8;;;;;;;26.67;49.75488;941.3901;;;;
2022/09/04 07:38:58;;;;;;;1.3;1.1;;;;;;;26.95;45.24707;941.4674;;;;
2022/09/04 07:41:25;;;;;;;2;0.9;;;;;;;26.76;46.80371;941.4853;;;;
2022/09/04 07:43:50;;;;;;;1.1;1;;;;;;;26.31;48.31836;941.5073;;;;
2022/09/04 07:46:15;;;;;;;1.2;1;;;;;;;27.91;47.05371;941.4785;;;;
2022/09/04 07:48:40;;;;;;;1.4;0.9;;;;;;;28.1;43.27148;941.4052;;;;
2022/09/04 07:51:08;;;;;;;0.8;0.8;;;;;;;28.64;43.25293;941.4755;;;;
2022/09/04 07:53:31;;;;;;;1.1;1;;;;;;;28.6;40.75;941.4827;;;;
2022/09/04 07:55:56;;;;;;;0.8;0.8;;;;;;;29.45;40.83984;941.4933;;;;
2022/09/04 07:58:27;;;;;;;1.7;1;;;;;;;29.14;42.12109;941.5393;;;;
2022/09/04 08:00:50;;;;;;;0.9;0.9;;;;;;;29.52;40.98926;941.5603;;;;
2022/09/04 08:03:16;;;;;;;1.5;0.9;;;;;;;30.7;39.30371;941.5574;;;;
2022/09/04 08:05:40;;;;;;;1.2;0.9;;;;;;;30.91;37.95898;941.566;;;;
2022/09/04 08:08:05;;;;;;;0.8;0.8;;;;;;;31.01;37.33398;941.5413;;;;
2022/09/04 08:10:33;;;;;;;0.8;0.8;;;;;;;29.83;39.78809;941.5604;;;;
2022/09/04 08:12:59;;;;;;;1.4;0.9;;;;;;;30.8;38.1416;941.5545;;;;
2022/09/04 08:15:24;;;;;;;1.4;1.3;;;;;;;31.98;36.52637;941.6188;;;;
2022/09/04 08:17:51;;;;;;;1.1;1;;;;;;;32.47;35.18652;941.598;;;;
2022/09/04 08:20:15;;;;;;;0.8;0.8;;;;;;;31.09;37.42285;941.5892;;;;
2022/09/04 08:22:41;;;;;;;0.5;0.5;;;;;;;31.24;37.0293;941.5354;;;;
2022/09/04 08:25:06;;;;;;;0.8;0.8;;;;;;;31.44;35.87207;941.5973;;;;
2022/09/04 08:27:34;;;;;;;0.6;0.6;;;;;;;32.67;35.12891;941.5912;;;;
2022/09/04 08:30:02;;;;;;;2.6;1;;;;;;;32.4;35.71973;941.6262;;;;
2022/09/04 08:32:24;;;;;;;0.8;0.8;;;;;;;30.73;36.72461;941.6245;;;;
2022/09/04 08:34:52;;;;;;;0.7;0.7;;;;;;;29.57;41.02832;941.6383;;;;
2022/09/04 08:37:17;;;;;;;1;0.8;;;;;;;30.89;36.21094;941.5549;;;;
2022/09/04 08:39:42;;;;;;;0.9;0.8;;;;;;;30.81;37.40039;941.6124;;;;
2022/09/04 08:42:07;;;;;;;1.2;0.8;;;;;;;28.96;41.50879;941.6856;;;;
2022/09/04 08:44:35;;;;;;;2.5;1.1;;;;;;;29.97;39.2168;941.653;;;;
2022/09/04 08:47:02;;;;;;;0.8;0.8;;;;;;;29.89;38.98242;941.6342;;;;
2022/09/04 08:49:27;;;;;;;0.8;0.8;;;;;;;30.59;37.59766;941.6478;;;;
2022/09/04 08:51:56;;;;;;;1.2;0.8;;;;;;;31.54;36.31152;941.6408;;;;
2022/09/04 08:54:20;;;;;;;0.8;0.8;;;;;;;33.05;34.57031;941.6792;;;;
2022/09/04 08:56:46;;;;;;;1.1;1;;;;;;;30.24;36.74512;941.6094;;;;
2022/09/04 08:59:12;;;;;;;1.3;1.2;;;;;;;29.83;38.65527;941.627;;;;
2022/09/04 09:01:40;;;;;;;2.1;1.2;;;;;;;30.9;37.26367;941.5453;;;;
2022/09/04 09:04:05;;;;;;;2.1;1.4;;;;;;;31.75;35.33398;941.5726;;;;
2022/09/04 09:06:30;;;;;;;0.9;0.9;;;;;;;30.61;34.63574;941.5081;;;;
2022/09/04 09:08:55;;;;;;;0.9;0.9;;;;;;;31.4;36.22852;941.5697;;;;
2022/09/04 09:11:24;;;;;;;0.7;0.7;;;;;;;31.77;34.74902;941.5218;;;;
2022/09/04 09:13:50;;;;;;;1.1;1;;;;;;;29.87;36.98828;941.5491;;;;
2022/09/04 09:16:18;;;;;;;0.9;0.9;;;;;;;29.28;39.94238;941.57;;;;
2022/09/04 09:18:43;;;;;;;1;1;;;;;;;29.07;43.22266;941.5326;;;;
2022/09/04 09:21:09;;;;;;;1.3;0.9;;;;;;;28.58;43.41211;941.5485;;;;
2022/09/04 09:23:34;;;;;;;1;1;;;;;;;28.33;45.5166;941.5323;;;;
2022/09/04 09:26:05;;;;;;;1;0.9;;;;;;;27.22;45.19141;941.4752;;;;
2022/09/04 09:28:25;;;;;;;1;1;;;;;;;25.98;48.55469;941.4821;;;;
2022/09/04 09:30:50;;;;;;;0.9;0.9;;;;;;;26.2;49.26465;941.455;;;;
2022/09/04 09:33:18;;;;;;;1;1;;;;;;;25.5;53.39258;941.4551;;;;
2022/09/04 09:35:50;;;;;;;1.2;1.1;;;;;;;25.47;55.33887;941.462;;;;
2022/09/04 09:38:11;;;;;;;1.2;1.1;;;;;;;26.63;49.22852;941.4587;;;;
2022/09/04 09:42:37;;;;;;;1.7;1.1;;;;;;;27.51;47.9375;941.4756;;;;
2022/09/04 09:45:07;;;;;;;1.3;1.1;;;;;;;27.1;46.96875;941.4902;;;;
2022/09/04 09:47:35;;;;;;;1.1;1;;;;;;;27.31;46.21973;941.4899;;;;
2022/09/04 09:50:00;;;;;;;1.2;1.1;;;;;;;27.11;47.00586;941.455;;;;
2022/09/04 09:52:27;;;;;;;1.4;1.3;;;;;;;27;48.57031;941.5594;;;;
2022/09/04 09:54:52;;;;;;;1.3;1.2;;;;;;;27.05;46.64453;941.5323;;;;
2022/09/04 09:57:24;;;;;;;2;1.2;;;;;;;26.79;49.68457;941.4456;;;;
2022/09/04 09:59:49;;;;;;;1.4;1.3;;;;;;;26.2;51.33594;941.4695;;;;
2022/09/04 10:02:15;;;;;;;1.2;1.1;;;;;;;26.31;49.69043;941.4716;;;;
2022/09/04 10:04:41;;;;;;;2.7;1.3;;;;;;;26.1;51.48926;941.4497;;;;
2022/09/04 10:07:06;;;;;;;1.5;1.2;;;;;;;25.82;52.875;941.4579;;;;
2022/09/04 10:09:31;;;;;;;1.5;1.4;;;;;;;26.22;51.51563;941.4196;;;;
2022/09/04 10:12:08;;;;;;;1.7;1.2;;;;;;;27.02;50.33789;941.3688;;;;
2022/09/04 10:14:33;;;;;;;1.3;1.2;;;;;;;27.41;50.09766;941.4061;;;;
2022/09/04 10:17:00;;;;;;;1.5;1.4;;;;;;;26.87;49.66992;941.3959;;;;
2022/09/04 10:19:25;;;;;;;2.7;1.8;;;;;;;26.21;51.38379;941.3321;;;;
2022/09/04 10:21:50;;;;;;;2.1;1.3;;;;;;;25.29;55.93066;941.4556;;;;
2022/09/04 10:24:16;;;;;;;1.5;1.2;;;;;;;25.02;56.86426;941.3725;;;;
2022/09/04 10:26:43;;;;;;;1.5;1.4;;;;;;;25.07;57.50684;941.4443;;;;
2022/09/04 10:29:10;;;;;;;1.9;1.4;;;;;;;25.6;54.68164;941.3745;;;;
2022/09/04 10:31:33;;;;;;;7.9;2.8;;;;;;;27.01;51.37988;941.3963;;;;
2022/09/04 10:33:59;;;;;;;7.3;3.3;;;;;;;28.37;46.98242;941.3597;;;;
2022/09/04 10:36:26;;;;;;;5;2.4;;;;;;;29.21;44.75977;941.3212;;;;
2022/09/04 10:40:37;;;;;;;3.6;1.8;;;;;;;29.91;41.6084;941.2568;;;;
2022/09/04 10:41:15;;;;;;;4.1;2.2;;;;;;;29.76;42.95508;941.2983;;;;
2022/09/04 10:43:39;;;;;;;3;1.8;;;;;;;29.53;41.38281;941.3055;;;;
2022/09/04 10:46:07;;;;;;;3.2;2;;;;;;;29.52;43.79004;941.2762;;;;
2022/09/04 10:50:00;;;;;;;2.8;1.8;;;;;;;28.84;47.38867;941.3607;;;;
2022/09/04 10:52:25;;;;;;;1.8;1.4;;;;;;;28.98;47.48633;941.3351;;;;
2022/09/04 10:54:53;;;;;;;2.4;1.2;;;;;;;29.83;44.83496;941.2566;;;;
2022/09/04 10:57:17;;;;;;;3;1.8;;;;;;;30.33;42.66211;941.2308;;;;
2022/09/04 10:59:44;;;;;;;1.3;1.2;;;;;;;29.58;43.90332;941.2178;;;;
2022/09/04 11:02:09;;;;;;;1.3;1.2;;;;;;;29.85;44.3584;941.207;;;;
2022/09/04 11:04:35;;;;;;;1.2;1.1;;;;;;;28.91;45.11133;941.1939;;;;
2022/09/04 11:07:00;;;;;;;1.9;1.2;;;;;;;28.77;46.54883;941.2149;;;;
2022/09/04 11:09:27;;;;;;;1.1;1.1;;;;;;;30.06;44.89258;941.1718;;;;
2022/09/04 11:11:51;;;;;;;2.2;1.3;;;;;;;30.41;43.19629;941.1442;;;;
2022/09/04 11:14:16;;;;;;;1.7;1.4;;;;;;;31.03;40.875;941.0947;;;;
2022/09/04 11:16:47;;;;;;;1.3;1.2;;;;;;;31.3;42.02441;941.0684;;;;
2022/09/04 11:19:12;;;;;;;1.8;1.4;;;;;;;29.19;44.12793;941.1161;;;;
2022/09/04 11:21:48;;;;;;;1.1;1;;;;;;;30.13;41.42578;941.105;;;;
2022/09/04 11:24:12;;;;;;;1.4;1.1;;;;;;;30.41;42.69336;941.1199;;;;
2022/09/04 11:26:38;;;;;;;2.1;1.8;;;;;;;31.38;40.41602;941.0979;;;;
2022/09/04 11:29:03;;;;;;;1.6;1.5;;;;;;;30.67;41.90527;941.0391;;;;
2022/09/04 11:31:28;;;;;;;1.5;1.4;;;;;;;30.86;42.03125;941.0106;;;;
2022/09/04 11:33:54;;;;;;;1.2;1.1;;;;;;;30.8;43.72266;940.9827;;;;
2022/09/04 11:36:24;;;;;;;1.9;1.2;;;;;;;31.11;41.4082;940.9991;;;;
2022/09/04 11:38:55;;;;;;;1.6;1.2;;;;;;;30.34;44.34766;940.9877;;;;
2022/09/04 11:41:27;;;;;;;2.2;1.4;;;;;;;30.09;43.86914;941.0181;;;;
2022/09/04 11:43:53;;;;;;;1.5;1.3;;;;;;;29.4;42.74219;940.9589;;;;
2022/09/04 11:46:18;;;;;;;1.3;1.2;;;;;;;29.04;43.75586;940.915;;;;
2022/09/04 11:48:43;;;;;;;2.5;1.2;;;;;;;28.62;45.27246;940.9813;;;;
2022/09/04 11:51:22;;;;;;;3.2;1.2;;;;;;;29;45.62012;940.9975;;;;
2022/09/04 11:53:47;;;;;;;1.4;1.3;;;;;;;30.06;43.04199;940.9717;;;;
2022/09/04 11:56:13;;;;;;;1.7;1.3;;;;;;;30.81;40.75879;940.96;;;;
2022/09/04 11:58:41;;;;;;;1.2;1.1;;;;;;;31.15;40.41895;940.9418;;;;
2022/09/04 12:01:09;;;;;;;1.7;1.2;;;;;;;31.77;40.04297;940.9709;;;;
2022/09/04 12:03:32;;;;;;;1.3;1.2;;;;;;;31.19;41.26074;940.923;;;;
2022/09/04 12:05:57;;;;;;;1.9;1.1;;;;;;;30.71;43.41504;940.9108;;;;
2022/09/04 12:08:22;;;;;;;1.5;1.4;;;;;;;31.13;40.63281;940.9066;;;;
2022/09/04 12:10:48;;;;;;;2.8;1.4;;;;;;;31.88;39.40625;940.8887;;;;
2022/09/04 12:13:13;;;;;;;1.3;1.2;;;;;;;33.12;38.10742;940.9461;;;;
2022/09/04 12:15:45;;;;;;;1.9;1.3;;;;;;;34.6;33.56738;940.9008;;;;
2022/09/04 12:18:10;;;;;;;1;1;;;;;;;34.07;35.93555;940.9061;;;;
2022/09/04 12:20:39;;;;;;;1.2;1.1;;;;;;;33.51;35.66309;940.9174;;;;
2022/09/04 12:23:05;;;;;;;1.3;1.2;;;;;;;34.16;34.60645;940.9386;;;;
2022/09/04 12:25:30;;;;;;;1.2;1;;;;;;;34.66;33.19727;940.8195;;;;
2022/09/04 12:27:59;;;;;;;1.2;1.1;;;;;;;34.11;33.44727;940.8126;;;;
2022/09/04 12:30:24;;;;;;;1.4;1;;;;;;;34.6;32.94141;940.8452;;;;
2022/09/04 12:32:50;;;;;;;1.2;1.1;;;;;;;35.38;32.27246;940.7795;;;;
2022/09/04 12:35:16;;;;;;;1.3;1.2;;;;;;;36.25;31.69336;940.8522;;;;
2022/09/04 12:37:48;;;;;;;1.3;1.2;;;;;;;35.49;32.40137;940.8337;;;;
2022/09/04 12:40:17;;;;;;;2.3;1.2;;;;;;;35.85;31.08496;940.8599;;;;
2022/09/04 12:42:42;;;;;;;1.2;1.1;;;;;;;35.93;30.93359;940.8777;;;;
2022/09/04 12:45:09;;;;;;;1.2;1.1;;;;;;;33.38;35.3291;940.869;;;;
2022/09/04 12:47:40;;;;;;;1.9;1.1;;;;;;;32.79;36.80762;940.8719;;;;
2022/09/04 12:50:04;;;;;;;2;1.1;;;;;;;32.51;37.79297;940.9068;;;;
2022/09/04 12:52:29;;;;;;;2.4;1.2;;;;;;;32.97;36.01758;940.8603;;;;
2022/09/04 12:54:54;;;;;;;1.8;1.3;;;;;;;33.34;35.43359;940.8592;;;;
2022/09/04 12:57:19;;;;;;;1.3;1.1;;;;;;;32.69;36.5;940.8754;;;;
2022/09/04 12:59:45;;;;;;;1.2;1.1;;;;;;;30.99;39.93848;940.8414;;;;
2022/09/04 13:02:10;;;;;;;2;1.3;;;;;;;30.56;40.91602;940.9319;;;;
2022/09/04 13:04:39;;;;;;;1.3;1.2;;;;;;;31.23;38.91895;940.9522;;;;
2022/09/04 13:07:03;;;;;;;1.6;1.3;;;;;;;31.19;39.2627;940.9621;;;;
2022/09/04 13:09:32;;;;;;;1.2;1;;;;;;;29.99;42.34375;940.9972;;;;
2022/09/04 13:11:57;;;;;;;1.3;1.2;;;;;;;29.31;44.72168;940.9947;;;;
2022/09/04 13:14:23;;;;;;;1.1;1;;;;;;;30.72;40.73828;941.0269;;;;
2022/09/04 13:16:47;;;;;;;1;1;;;;;;;31.28;38.43164;941.0109;;;;
2022/09/04 13:19:13;;;;;;;1.8;1.1;;;;;;;31.52;39.24316;940.9917;;;;
2022/09/04 13:21:38;;;;;;;1.6;1;;;;;;;32.08;37.84082;941.0214;;;;
2022/09/04 13:24:03;;;;;;;1.1;1;;;;;;;32.91;37.42969;941.1015;;;;
2022/09/04 13:26:30;;;;;;;1.5;1.2;;;;;;;32.19;37.52637;941.0528;;;;
2022/09/04 13:28:55;;;;;;;1.2;1.1;;;;;;;31.58;38.58887;941.0363;;;;
2022/09/04 13:31:22;;;;;;;1.4;1.3;;;;;;;31.29;38.98438;941.001;;;;
2022/09/04 13:33:52;;;;;;;1.2;1.1;;;;;;;30.58;41.34766;941.0992;;;;
2022/09/04 13:36:18;;;;;;;1;1;;;;;;;30.43;41.53711;941.1219;;;;
2022/09/04 13:38:43;;;;;;;1.2;1.1;;;;;;;29.91;42.94531;941.0948;;;;
2022/09/04 13:41:08;;;;;;;1.5;1.4;;;;;;;29.2;44.38965;941.1364;;;;
2022/09/04 13:43:35;;;;;;;2.1;1.1;;;;;;;28.42;43.32617;941.1233;;;;
2022/09/04 13:46:00;;;;;;;2;1.4;;;;;;;28.21;44.58887;941.1412;;;;
2022/09/04 13:48:25;;;;;;;2;1.2;;;;;;;27.34;47.69434;941.134;;;;
2022/09/04 13:51:31;;;;;;;2.2;1;;;;;;;27.22;47.2666;941.1548;;;;
2022/09/04 13:53:55;;;;;;;1.9;1.2;;;;;;;27.04;47.76855;941.0842;;;;
2022/09/04 13:56:21;;;;;;;1.6;1.5;;;;;;;27.4;46.85742;941.054;;;;
2022/09/04 13:58:50;;;;;;;1.3;1.2;;;;;;;27.54;46.69531;941.0633;;;;
2022/09/04 14:01:12;;;;;;;1.1;1.1;;;;;;;27.57;46.35449;941.0264;;;;
2022/09/04 14:03:36;;;;;;;1.8;1;;;;;;;27.14;46.77148;941.0505;;;;
2022/09/04 14:06:06;;;;;;;1.4;1.3;;;;;;;26.92;46.59375;941.1429;;;;
2022/09/04 14:08:33;;;;;;;2.6;1.4;;;;;;;26.46;48.19141;941.1622;;;;
2022/09/04 14:10:57;;;;;;;2.6;1.3;;;;;;;26.35;48.5957;941.1744;;;;
2022/09/04 14:13:21;;;;;;;1.9;1.5;;;;;;;26.44;48.47363;941.1256;;;;
2022/09/04 14:15:50;;;;;;;1.4;1.2;;;;;;;26.39;48.5752;941.1741;;;;
2022/09/04 14:18:15;;;;;;;1.3;1.2;;;;;;;26.14;49.22266;941.2112;;;;
2022/09/04 14:20:59;;;;;;;1.7;1.2;;;;;;;25.95;49.35547;941.2197;;;;
2022/09/04 14:23:24;;;;;;;2.1;1.5;;;;;;;25.86;50.20801;941.2532;;;;
2022/09/04 14:25:53;;;;;;;1.4;1.3;;;;;;;25.65;51.44922;941.2667;;;;
2022/09/04 14:28:19;;;;;;;1.3;1.2;;;;;;;25.75;51.50781;941.2994;;;;
2022/09/04 14:30:44;;;;;;;1.3;1.2;;;;;;;25.66;52.26563;941.3074;;;;
2022/09/04 14:33:13;;;;;;;2.2;1.4;;;;;;;25.68;53.22559;941.3303;;;;
2022/09/04 14:35:42;;;;;;;1.6;1.4;;;;;;;25.57;54.06152;941.2955;;;;
2022/09/04 14:38:05;;;;;;;1.4;1.3;;;;;;;25.67;52.59766;941.3778;;;;
2022/09/04 14:40:30;;;;;;;1.9;1.6;;;;;;;25.28;52.1748;941.4535;;;;
2022/09/04 14:42:57;;;;;;;1.6;1.5;;;;;;;25.42;52.79395;941.4149;;;;